createdAt,value
2018-07-28T00:00:56.913Z,4.60
2018-07-28T00:03:24.168Z,5.43
2018-07-28T00:05:51.406Z,5.80
2018-07-28T00:08:18.657Z,5.40
2018-07-28T00:10:45.904Z,5.33
2018-07-28T00:13:13.136Z,5.30
2018-07-28T00:15:40.411Z,5.87
2018-07-28T00:18:07.652Z,6.60
2018-07-28T00:20:34.903Z,5.93
2018-07-28T00:23:02.152Z,5.37
2018-07-28T00:25:33.724Z,5.93
2018-07-28T00:28:00.984Z,6.27
2018-07-28T00:30:28.232Z,5.70
2018-07-28T00:32:55.485Z,5.50
2018-07-28T00:35:22.716Z,5.60
2018-07-28T00:37:50.133Z,5.00
2018-07-28T00:40:17.424Z,5.80
2018-07-28T00:42:44.684Z,5.47
2018-07-28T00:45:11.908Z,5.23
2018-07-28T00:47:39.183Z,6.30
2018-07-28T00:50:07.139Z,6.10
2018-07-28T00:52:34.420Z,6.37
2018-07-28T00:55:01.676Z,6.97
2018-07-28T00:57:28.899Z,6.50
2018-07-28T00:59:56.164Z,6.57
2018-07-28T01:02:23.431Z,6.60
2018-07-28T01:04:50.655Z,6.27
2018-07-28T01:07:18.009Z,6.17
2018-07-28T01:09:45.260Z,5.70
2018-07-28T01:12:13.073Z,6.17
2018-07-28T01:14:40.317Z,6.43
2018-07-28T01:17:07.560Z,6.53
2018-07-28T01:19:34.810Z,6.27
2018-07-28T01:22:02.028Z,6.97
2018-07-28T01:24:29.289Z,6.27
2018-07-28T01:26:56.536Z,6.30
2018-07-28T01:29:23.785Z,5.90
2018-07-28T01:31:51.094Z,6.40
2018-07-28T01:34:18.617Z,6.40
2018-07-28T01:36:45.861Z,6.87
2018-07-28T01:39:14.316Z,7.10
2018-07-28T01:41:42.547Z,6.77
2018-07-28T01:44:10.148Z,7.17
2018-07-28T01:46:37.403Z,6.80
2018-07-28T01:49:05.288Z,6.80
2018-07-28T01:51:32.744Z,6.53
2018-07-28T01:54:00.016Z,6.03
2018-07-28T01:56:27.267Z,6.53
2018-07-28T01:58:54.571Z,6.57
2018-07-28T02:01:21.852Z,7.10
2018-07-28T02:03:49.218Z,8.10
2018-07-28T02:06:16.453Z,6.80
2018-07-28T02:08:43.709Z,5.80
2018-07-28T02:11:11.031Z,6.67
2018-07-28T02:13:38.403Z,7.00
2018-07-28T02:16:05.763Z,7.20
2018-07-28T02:18:33.019Z,6.47
2018-07-28T02:21:00.255Z,6.60
2018-07-28T02:23:27.519Z,7.20
2018-07-28T02:25:54.759Z,6.30
2018-07-28T02:28:22.097Z,7.40
2018-07-28T02:30:49.564Z,6.77
2018-07-28T02:33:17.425Z,6.97
2018-07-28T02:35:44.672Z,6.20
2018-07-28T02:38:11.909Z,6.70
2018-07-28T02:40:39.201Z,7.13
2018-07-28T02:43:06.439Z,6.60
2018-07-28T02:45:33.711Z,7.20
2018-07-28T02:48:00.945Z,7.70
2018-07-28T02:50:28.209Z,7.00
2018-07-28T02:52:55.448Z,7.70
2018-07-28T02:55:22.731Z,7.93
2018-07-28T02:57:49.951Z,7.80
2018-07-28T03:00:17.240Z,8.20
2018-07-28T03:02:44.588Z,7.93
2018-07-28T03:05:11.857Z,7.63
2018-07-28T03:07:39.153Z,7.60
2018-07-28T03:10:06.717Z,6.47
2018-07-28T03:12:33.966Z,8.33
2018-07-28T03:15:02.590Z,6.43
2018-07-28T03:17:29.905Z,8.00
2018-07-28T03:19:57.147Z,6.50
2018-07-28T03:22:24.437Z,7.50
2018-07-28T03:24:51.694Z,7.20
2018-07-28T03:27:19.059Z,7.43
2018-07-28T03:29:47.131Z,6.70
2018-07-28T03:32:14.444Z,6.90
2018-07-28T03:34:41.675Z,7.60
2018-07-28T03:37:08.944Z,6.03
2018-07-28T03:39:36.204Z,7.20
2018-07-28T03:42:03.452Z,6.40
2018-07-28T03:44:30.737Z,6.50
2018-07-28T03:46:57.957Z,8.03
2018-07-28T03:49:25.198Z,7.53
2018-07-28T03:51:52.463Z,7.73
2018-07-28T03:54:19.730Z,6.53
2018-07-28T03:56:47.076Z,7.30
2018-07-28T03:59:14.327Z,7.27
2018-07-28T04:01:41.602Z,7.43
2018-07-28T04:04:08.858Z,7.60
2018-07-28T04:06:36.117Z,7.80
2018-07-28T04:09:03.725Z,7.20
2018-07-28T04:11:31.000Z,7.60
2018-07-28T04:13:58.243Z,8.37
2018-07-28T04:16:25.540Z,8.10
2018-07-28T04:18:52.776Z,7.47
2018-07-28T04:21:20.016Z,8.43
2018-07-28T04:23:47.260Z,7.00
2018-07-28T04:26:14.527Z,7.17
2018-07-28T04:28:41.888Z,6.40
2018-07-28T04:31:09.094Z,7.13
2018-07-28T04:33:36.368Z,6.30
2018-07-28T04:36:03.591Z,6.63
2018-07-28T04:38:30.972Z,6.43
2018-07-28T04:40:58.212Z,5.83
2018-07-28T04:43:25.471Z,5.10
2018-07-28T04:45:52.719Z,5.90
2018-07-28T04:48:19.964Z,5.50
2018-07-28T04:50:47.224Z,5.67
2018-07-28T04:53:14.471Z,5.50
2018-07-28T04:55:41.707Z,5.63
2018-07-28T04:58:08.988Z,5.47
2018-07-28T05:00:36.224Z,5.93
2018-07-28T05:03:03.473Z,5.20
2018-07-28T05:05:30.735Z,6.00
2018-07-28T05:07:57.959Z,6.40
2018-07-28T05:10:25.240Z,6.60
2018-07-28T05:12:52.475Z,6.33
2018-07-28T05:15:19.744Z,5.83
2018-07-28T05:17:46.975Z,5.23
2018-07-28T05:20:14.221Z,5.50
2018-07-28T05:22:41.487Z,5.83
2018-07-28T05:25:08.735Z,5.90
2018-07-28T05:27:35.988Z,5.70
2018-07-28T05:30:03.320Z,5.60
2018-07-28T05:32:30.891Z,6.10
2018-07-28T05:34:58.168Z,6.60
2018-07-28T05:37:25.401Z,6.17
2018-07-28T05:39:52.960Z,6.63
2018-07-28T05:42:20.240Z,6.40
2018-07-28T05:44:47.591Z,5.53
2018-07-28T05:47:14.816Z,7.27
2018-07-28T05:49:42.059Z,6.10
2018-07-28T05:52:09.316Z,6.50
2018-07-28T05:54:36.857Z,6.50
2018-07-28T05:57:04.302Z,6.13
2018-07-28T05:59:31.591Z,5.70
2018-07-28T06:01:58.869Z,5.27
2018-07-28T06:04:26.103Z,6.20
2018-07-28T06:06:53.380Z,6.23
2018-07-28T06:09:20.709Z,5.10
2018-07-28T06:11:47.972Z,5.60
2018-07-28T06:14:15.413Z,4.70
2018-07-28T06:16:42.582Z,4.90
2018-07-28T06:19:10.017Z,5.00
2018-07-28T06:21:37.293Z,4.87
2018-07-28T06:24:04.537Z,5.03
2018-07-28T06:26:31.913Z,4.80
2018-07-28T06:28:59.526Z,5.60
2018-07-28T06:31:26.813Z,5.67
2018-07-28T06:33:54.304Z,6.57
2018-07-28T06:36:21.857Z,6.20
2018-07-28T06:38:49.163Z,5.73
2018-07-28T06:41:16.821Z,7.00
2018-07-28T06:43:44.477Z,6.23
2018-07-28T06:46:11.701Z,6.70
2018-07-28T06:48:39.014Z,7.57
2018-07-28T06:51:06.257Z,5.97
2018-07-28T06:53:33.525Z,6.00
2018-07-28T06:56:00.748Z,7.20
2018-07-28T06:58:28.220Z,6.13
2018-07-28T07:00:56.788Z,6.07
2018-07-28T07:03:24.044Z,6.57
2018-07-28T07:05:51.394Z,6.63
2018-07-28T07:08:18.659Z,5.70
2018-07-28T07:10:46.228Z,6.60
2018-07-28T07:13:14.415Z,7.10
2018-07-28T07:15:42.028Z,6.60
2018-07-28T07:18:09.271Z,6.30
2018-07-28T07:20:36.656Z,7.40
2018-07-28T07:23:03.951Z,7.57
2018-07-28T07:25:31.205Z,6.20
2018-07-28T07:27:58.601Z,7.40
2018-07-28T07:30:25.906Z,6.80
2018-07-28T07:32:53.205Z,6.00
2018-07-28T07:35:20.497Z,6.73
2018-07-28T07:37:47.744Z,6.93
2018-07-28T07:40:15.023Z,6.53
2018-07-28T07:42:42.307Z,6.97
2018-07-28T07:45:09.543Z,6.33
2018-07-28T07:47:36.796Z,6.30
2018-07-28T07:50:04.256Z,8.80
2018-07-28T07:52:31.569Z,7.80
2018-07-28T07:54:59.922Z,8.47
2018-07-28T07:57:27.269Z,7.20
2018-07-28T07:59:54.535Z,8.23
2018-07-28T08:02:21.768Z,6.27
2018-07-28T08:04:49.090Z,6.97
2018-07-28T08:07:16.292Z,7.80
2018-07-28T08:09:43.516Z,6.43
2018-07-28T08:12:10.788Z,6.10
2018-07-28T08:14:38.047Z,6.43
2018-07-28T08:17:05.395Z,6.90
2018-07-28T08:19:32.655Z,5.87
2018-07-28T08:21:59.897Z,6.20
2018-07-28T08:24:27.137Z,6.87
2018-07-28T08:26:54.512Z,5.73
2018-07-28T08:29:21.845Z,7.10
2018-07-28T08:31:49.145Z,6.50
2018-07-28T08:34:16.363Z,6.67
2018-07-28T08:36:43.621Z,5.87
2018-07-28T08:39:13.643Z,7.53
2018-07-28T08:41:41.178Z,8.00
2018-07-28T08:44:08.428Z,7.67
2018-07-28T08:46:35.706Z,8.20
2018-07-28T08:49:03.041Z,7.40
2018-07-28T08:51:30.301Z,8.03
2018-07-28T08:53:57.554Z,9.23
2018-07-28T08:56:25.023Z,7.47
2018-07-28T08:58:52.271Z,8.10
2018-07-28T09:01:19.540Z,7.00
2018-07-28T09:03:46.776Z,8.33
2018-07-28T09:06:14.016Z,7.57
2018-07-28T09:08:41.279Z,7.77
2018-07-28T09:11:08.686Z,8.37
2018-07-28T09:13:35.913Z,6.37
2018-07-28T09:16:03.233Z,7.37
2018-07-28T09:18:30.684Z,6.90
2018-07-28T09:20:58.148Z,6.67
2018-07-28T09:23:25.459Z,6.10
2018-07-28T09:25:52.675Z,5.70
2018-07-28T09:28:20.392Z,5.80
2018-07-28T09:30:47.843Z,5.87
2018-07-28T09:33:15.139Z,6.23
2018-07-28T09:35:42.366Z,6.20
2018-07-28T09:38:09.638Z,5.13
2018-07-28T09:40:36.904Z,5.53
2018-07-28T09:43:04.251Z,5.23
2018-07-28T09:45:31.516Z,5.07
2018-07-28T09:47:58.847Z,4.93
2018-07-28T09:50:26.099Z,4.60
2018-07-28T09:52:53.328Z,4.70
2018-07-28T09:55:20.585Z,4.90
2018-07-28T09:57:47.852Z,4.10
2018-07-28T10:00:19.436Z,4.50
2018-07-28T10:02:46.740Z,4.90
2018-07-28T10:05:13.991Z,5.67
2018-07-28T10:07:41.248Z,3.57
2018-07-28T10:10:08.503Z,5.60
2018-07-28T10:12:39.177Z,5.00
2018-07-28T10:15:06.477Z,5.77
2018-07-28T10:17:33.851Z,5.37
2018-07-28T10:20:01.138Z,4.10
2018-07-28T10:22:28.384Z,4.63
2018-07-28T10:24:55.645Z,4.90
2018-07-28T10:27:22.953Z,5.13
2018-07-28T10:29:50.195Z,5.10
2018-07-28T10:32:17.461Z,5.50
2018-07-28T10:34:44.707Z,4.60
2018-07-28T10:37:11.967Z,5.13
2018-07-28T10:39:39.209Z,4.80
2018-07-28T10:42:06.468Z,5.47
2018-07-28T10:44:33.721Z,5.17
2018-07-28T10:47:00.969Z,5.20
2018-07-28T10:49:28.215Z,4.40
2018-07-28T10:51:55.509Z,4.80
2018-07-28T10:54:22.727Z,5.37
2018-07-28T10:56:49.984Z,5.00
2018-07-28T10:59:17.267Z,5.00
2018-07-28T11:01:44.560Z,5.53
2018-07-28T11:04:11.837Z,5.70
2018-07-28T11:06:39.093Z,5.50
2018-07-28T11:09:07.302Z,5.40
2018-07-28T11:11:34.708Z,5.97
2018-07-28T11:14:01.978Z,5.57
2018-07-28T11:16:29.234Z,5.33
2018-07-28T11:18:56.590Z,6.03
2018-07-28T11:21:23.813Z,4.77
2018-07-28T11:23:58.256Z,4.93
2018-07-28T11:26:25.655Z,4.80
2018-07-28T11:28:53.655Z,4.67
2018-07-28T11:31:26.768Z,5.27
2018-07-28T11:33:59.719Z,6.10
2018-07-28T11:36:32.733Z,6.40
2018-07-28T11:39:05.718Z,5.80
2018-07-28T11:41:38.573Z,5.10
2018-07-28T11:44:11.484Z,5.60
2018-07-28T11:46:38.728Z,5.43
2018-07-28T11:49:06.067Z,5.90
2018-07-28T11:51:33.325Z,5.83
2018-07-28T11:54:00.603Z,5.00
2018-07-28T11:56:28.133Z,6.63
2018-07-28T11:58:55.388Z,5.10
2018-07-28T12:01:22.634Z,5.60
2018-07-28T12:03:49.905Z,5.43
2018-07-28T12:06:17.163Z,5.50
2018-07-28T12:08:44.399Z,5.63
2018-07-28T12:11:11.676Z,5.80
2018-07-28T12:13:38.918Z,6.00
2018-07-28T12:16:06.184Z,5.03
2018-07-28T12:18:33.496Z,5.90
2018-07-28T12:21:00.703Z,5.40
2018-07-28T12:23:27.972Z,5.87
2018-07-28T12:25:55.279Z,6.03
2018-07-28T12:28:22.541Z,5.40
2018-07-28T12:30:49.822Z,5.37
2018-07-28T12:33:17.036Z,5.97
2018-07-28T12:35:44.316Z,7.47
2018-07-28T12:38:11.880Z,5.77
2018-07-28T12:40:39.171Z,6.73
2018-07-28T12:43:06.576Z,6.67
2018-07-28T12:45:33.812Z,6.50
2018-07-28T12:48:01.194Z,6.83
2018-07-28T12:50:28.458Z,6.80
2018-07-28T12:52:55.747Z,7.03
2018-07-28T12:55:23.037Z,6.20
2018-07-28T12:57:50.264Z,6.30
2018-07-28T13:00:17.502Z,6.30
2018-07-28T13:02:44.769Z,5.67
2018-07-28T13:05:12.531Z,5.57
2018-07-28T13:07:39.775Z,5.87
2018-07-28T13:10:07.780Z,5.80
2018-07-28T13:12:35.395Z,5.70
2018-07-28T13:15:02.810Z,6.37
2018-07-28T13:17:30.039Z,5.50
2018-07-28T13:19:57.277Z,5.87
2018-07-28T13:22:24.531Z,5.10
2018-07-28T13:24:51.780Z,6.00
2018-07-28T13:27:19.059Z,5.70
2018-07-28T13:29:46.374Z,5.90
2018-07-28T13:32:13.632Z,6.90
2018-07-28T13:34:40.894Z,6.40
2018-07-28T13:37:08.331Z,6.80
2018-07-28T13:39:35.604Z,7.60
2018-07-28T13:42:03.153Z,6.97
2018-07-28T13:44:30.411Z,6.67
2018-07-28T13:46:57.656Z,5.80
2018-07-28T13:49:24.937Z,5.00
2018-07-28T13:51:52.207Z,5.27
2018-07-28T13:54:19.508Z,5.30
2018-07-28T13:56:46.744Z,6.00
2018-07-28T13:59:14.083Z,5.47
2018-07-28T14:01:41.364Z,4.60
2018-07-28T14:04:08.704Z,5.27
2018-07-28T14:06:36.055Z,4.83
2018-07-28T14:09:04.956Z,5.30
2018-07-28T14:11:32.221Z,4.80
2018-07-28T14:13:59.892Z,4.93
2018-07-28T14:16:27.176Z,4.30
2018-07-28T14:18:54.525Z,4.37
2018-07-28T14:21:21.756Z,4.70
2018-07-28T14:23:54.001Z,4.87
2018-07-28T14:26:28.501Z,4.70
2018-07-28T14:29:00.484Z,4.20
2018-07-28T14:34:09.414Z,4.23
2018-07-28T14:36:36.683Z,4.63
2018-07-28T14:39:05.688Z,5.30
2018-07-28T14:41:32.924Z,4.30
2018-07-28T14:44:00.188Z,4.60
2018-07-28T14:46:27.657Z,4.60
2018-07-28T14:48:55.001Z,4.83
2018-07-28T14:51:22.248Z,4.47
2018-07-28T14:53:49.501Z,6.40
2018-07-28T14:56:16.846Z,5.00
2018-07-28T14:58:44.126Z,5.47
2018-07-28T15:01:11.655Z,5.67
2018-07-28T15:03:38.939Z,5.30
2018-07-28T15:06:06.280Z,6.20
2018-07-28T15:08:33.538Z,4.30
2018-07-28T15:11:00.900Z,5.23
2018-07-28T15:13:28.220Z,4.30
2018-07-28T15:15:55.522Z,5.03
2018-07-28T15:18:22.815Z,5.03
2018-07-28T15:20:50.069Z,5.40
2018-07-28T15:23:17.449Z,3.97
2018-07-28T15:25:44.693Z,4.27
2018-07-28T15:28:12.131Z,4.00
2018-07-28T15:30:39.486Z,4.30
2018-07-28T15:33:06.766Z,4.10
2018-07-28T15:35:34.075Z,3.40
2018-07-28T15:38:01.375Z,3.83
2018-07-28T15:40:28.621Z,3.97
2018-07-28T15:42:55.871Z,3.80
2018-07-28T15:45:23.204Z,3.73
2018-07-28T15:47:50.501Z,3.20
2018-07-28T15:50:24.014Z,2.90
2018-07-28T15:52:51.340Z,3.20
2018-07-28T15:55:18.674Z,2.80
2018-07-28T15:57:45.996Z,3.10
2018-07-28T16:00:15.211Z,2.63
2018-07-28T16:02:42.461Z,2.30
2018-07-28T16:05:09.740Z,3.60
2018-07-28T16:07:36.977Z,4.73
2018-07-28T16:10:04.434Z,6.07
2018-07-28T16:12:31.682Z,3.80
2018-07-28T16:14:59.128Z,3.53
2018-07-28T16:17:26.413Z,3.80
2018-07-28T16:19:53.660Z,3.30
2018-07-28T16:22:20.919Z,4.83
2018-07-28T16:24:48.273Z,4.10
2018-07-28T16:27:15.604Z,4.00
2018-07-28T16:29:42.937Z,3.90
2018-07-28T16:32:10.208Z,3.17
2018-07-28T16:34:37.490Z,3.10
2018-07-28T16:37:04.912Z,3.83
2018-07-28T16:39:32.265Z,3.90
2018-07-28T16:41:59.609Z,3.23
2018-07-28T16:44:26.896Z,3.07
2018-07-28T16:46:54.140Z,3.80
2018-07-28T16:49:21.441Z,4.90
2018-07-28T16:51:48.706Z,4.03
2018-07-28T16:54:15.976Z,4.10
2018-07-28T16:56:43.223Z,3.87
2018-07-28T16:59:10.476Z,4.87
2018-07-28T17:01:37.771Z,7.00
2018-07-28T17:04:05.214Z,9.00
2018-07-28T17:06:32.484Z,7.20
2018-07-28T17:08:59.792Z,7.30
2018-07-28T17:11:27.051Z,5.00
2018-07-28T17:13:54.311Z,6.93
2018-07-28T17:16:21.577Z,9.13
2018-07-28T17:18:48.820Z,7.70
2018-07-28T17:21:16.072Z,5.37
2018-07-28T17:23:43.345Z,2.93
2018-07-28T17:26:10.626Z,2.77
2018-07-28T17:28:37.883Z,2.83
2018-07-28T17:31:05.212Z,2.90
2018-07-28T17:33:32.475Z,3.43
2018-07-28T17:35:59.977Z,2.50
2018-07-28T17:38:27.295Z,2.50
2018-07-28T17:40:54.688Z,2.80
2018-07-28T17:43:21.939Z,3.20
2018-07-28T17:45:49.186Z,2.60
2018-07-28T17:48:16.462Z,3.00
2018-07-28T17:50:43.717Z,2.90
2018-07-28T17:53:11.002Z,3.10
2018-07-28T17:55:38.234Z,2.97
2018-07-28T17:58:05.534Z,3.83
2018-07-28T18:00:32.846Z,4.33
2018-07-28T18:03:00.138Z,3.60
2018-07-28T18:05:27.430Z,4.43
2018-07-28T18:07:54.676Z,3.90
2018-07-28T18:10:21.931Z,2.80
2018-07-28T18:12:49.244Z,2.80
2018-07-28T18:15:16.510Z,3.00
2018-07-28T18:17:43.773Z,3.53
2018-07-28T18:20:11.038Z,3.10
2018-07-28T18:22:38.299Z,3.00
2018-07-28T18:25:05.571Z,2.47
2018-07-28T18:27:32.857Z,3.03
2018-07-28T18:30:00.205Z,7.03
2018-07-28T18:32:27.516Z,5.80
2018-07-28T18:34:54.908Z,3.43
2018-07-28T18:37:22.220Z,4.17
2018-07-28T18:39:49.554Z,3.80
2018-07-28T18:42:16.825Z,4.20
2018-07-28T18:44:44.131Z,3.57
2018-07-28T18:47:11.388Z,3.33
2018-07-28T18:49:38.668Z,2.73
2018-07-28T18:52:06.321Z,3.30
2018-07-28T18:54:33.746Z,3.10
2018-07-28T18:57:03.007Z,3.27
2018-07-28T18:59:36.762Z,3.77
2018-07-28T19:02:09.166Z,3.47
2018-07-28T19:04:44.367Z,3.80
2018-07-28T19:07:15.327Z,3.63
2018-07-28T19:09:49.956Z,3.20
2018-07-28T19:12:26.343Z,2.57
2018-07-28T19:14:59.297Z,2.87
2018-07-28T19:17:40.880Z,2.60
2018-07-28T19:20:12.793Z,3.30
2018-07-28T19:22:46.193Z,2.73
2018-07-28T19:25:20.102Z,3.30
2018-07-28T19:27:53.850Z,3.50
2018-07-28T19:30:33.578Z,2.77
2018-07-28T19:49:36.106Z,3.27
2018-07-28T19:52:03.338Z,3.27
2018-07-28T19:54:30.584Z,2.83
2018-07-28T19:56:57.873Z,2.67
2018-07-28T19:59:25.134Z,3.40
2018-07-28T20:01:52.548Z,2.70
2018-07-28T20:04:19.906Z,3.07
2018-07-28T20:06:47.221Z,2.90
2018-07-28T20:09:14.431Z,3.23
2018-07-28T20:11:41.673Z,3.12
2018-07-28T20:14:09.034Z,2.60
2018-07-28T20:16:36.291Z,3.20
2018-07-28T20:19:03.606Z,3.37
2018-07-28T20:21:31.149Z,3.20
2018-07-28T20:23:58.414Z,3.10
2018-07-28T20:26:25.951Z,2.80
2018-07-28T20:28:53.471Z,4.07
2018-07-28T20:31:21.177Z,3.03
2018-07-28T20:33:48.468Z,2.80
2018-07-28T20:36:15.712Z,2.97
2018-07-28T20:38:43.027Z,2.90
2018-07-28T20:41:10.295Z,3.13
2018-07-28T20:43:37.535Z,3.07
2018-07-28T20:46:05.295Z,3.13
2018-07-28T20:48:32.651Z,3.10
2018-07-28T20:50:59.912Z,3.47
2018-07-28T20:53:27.170Z,3.70
2018-07-28T20:55:54.452Z,4.00
2018-07-28T20:58:21.755Z,3.03
2018-07-28T21:00:49.036Z,2.80
2018-07-28T21:03:16.460Z,3.10
2018-07-28T21:05:43.845Z,3.20
2018-07-28T21:08:11.147Z,3.00
2018-07-28T21:10:38.424Z,3.60
2018-07-28T21:13:06.024Z,3.20
2018-07-28T21:15:33.279Z,4.20
2018-07-28T21:18:00.529Z,3.77
2018-07-28T21:20:27.798Z,3.70
2018-07-28T21:22:55.064Z,4.10
2018-07-28T21:25:22.357Z,3.27
2018-07-28T21:27:49.629Z,3.30
2018-07-28T21:30:16.971Z,5.17
2018-07-28T21:32:44.240Z,3.40
2018-07-28T21:35:11.513Z,3.83
2018-07-28T21:37:38.793Z,4.17
2018-07-28T21:40:06.048Z,3.93
2018-07-28T21:42:33.333Z,3.77
2018-07-28T21:45:00.686Z,3.80
2018-07-28T21:47:27.912Z,5.90
2018-07-28T21:49:55.347Z,3.97
2018-07-28T21:52:22.851Z,4.73
2018-07-28T21:54:50.469Z,4.00
2018-07-28T21:57:17.798Z,3.90
2018-07-28T21:59:45.077Z,3.57
2018-07-28T22:02:12.504Z,4.30
2018-07-28T22:04:40.905Z,3.60
2018-07-28T22:07:08.202Z,4.27
2018-07-28T22:09:35.430Z,4.70
2018-07-28T22:12:02.944Z,3.80
2018-07-28T22:14:30.190Z,3.80
2018-07-28T22:16:57.508Z,4.20
2018-07-28T22:19:24.758Z,3.17
2018-07-28T22:21:52.059Z,3.17
2018-07-28T22:24:19.544Z,2.47
2018-07-28T22:26:46.817Z,2.40
2018-07-28T22:29:14.147Z,3.03
2018-07-28T22:31:41.417Z,3.03
2018-07-28T22:34:08.876Z,4.00
2018-07-28T22:36:36.148Z,3.47
2018-07-28T22:39:03.512Z,2.60
2018-07-28T22:41:30.748Z,2.43
2018-07-28T22:43:57.978Z,3.23
2018-07-28T22:46:25.244Z,3.30
2018-07-28T22:48:52.648Z,3.50
2018-07-28T22:51:19.916Z,3.50
2018-07-28T22:53:47.224Z,3.20
2018-07-28T22:56:14.460Z,3.20
2018-07-28T22:58:41.712Z,3.80
2018-07-28T23:01:09.260Z,3.40
2018-07-28T23:03:36.505Z,2.57
2018-07-28T23:06:03.790Z,3.37
2018-07-28T23:08:31.027Z,3.33
2018-07-28T23:10:58.265Z,3.43
2018-07-28T23:13:25.527Z,3.03
2018-07-28T23:15:52.853Z,3.13
2018-07-28T23:18:20.093Z,3.47
2018-07-28T23:20:47.367Z,2.63
2018-07-28T23:23:14.610Z,3.97
2018-07-28T23:25:41.879Z,2.87
2018-07-28T23:28:09.151Z,3.00
2018-07-28T23:30:36.393Z,3.07
2018-07-28T23:33:03.630Z,2.60
2018-07-28T23:35:30.884Z,2.60
2018-07-28T23:37:58.156Z,3.20
2018-07-28T23:40:25.392Z,2.50
2018-07-28T23:42:52.633Z,2.97
2018-07-28T23:45:19.888Z,3.00
2018-07-28T23:47:47.120Z,3.37
2018-07-28T23:50:14.712Z,4.00
2018-07-28T23:52:42.223Z,3.70
2018-07-28T23:55:09.472Z,3.23
2018-07-28T23:57:36.720Z,3.17
